Time;durP1;ratioP1;P1;durP2;ratioP2;P2;SDS_P1;SDS_P2;PMS_P1;PMS_P2;Temp;Humidity;BMP_temperature;BMP_pressure;BME280_temperature;BME280_humidity;BME280_pressure;Samples;Min_cycle;Max_cycle;Signal;HPM_P1;HPM_P2
2022/06/06 00:01:11;;;;;;;;;;;26.00;41.50;;;;;;4099493;28;20114;-38
2022/06/06 00:03:14;;;;;;;;;;;26.10;41.10;;;;;;4098930;28;19960;-40
2022/06/06 00:05:16;;;;;;;;;;;26.20;40.90;;;;;;4106118;28;20488;-38
2022/06/06 00:07:18;;;;;;;;;;;26.30;40.60;;;;;;4100536;28;20597;-43
2022/06/06 00:09:20;;;;;;;;;;;26.40;40.60;;;;;;4099308;28;20322;-42
2022/06/06 00:11:21;;;;;;;;;;;26.50;40.50;;;;;;4107297;28;21077;-38
2022/06/06 00:13:23;;;;;;;;;;;26.60;40.40;;;;;;4099400;28;21192;-39
2022/06/06 00:15:24;;;;;;;;;;;26.70;40.00;;;;;;4098629;28;20016;-39
2022/06/06 00:17:26;;;;;;;;;;;26.80;40.00;;;;;;4108733;28;19933;-38
2022/06/06 00:19:28;;;;;;;;;;;26.90;39.60;;;;;;4095186;28;20640;-42
2022/06/06 00:21:30;;;;;;;;;;;27.00;39.70;;;;;;4098394;28;19987;-37
2022/06/06 00:23:31;;;;;;;;;;;27.10;39.30;;;;;;4104701;28;20824;-38
2022/06/06 00:25:33;;;;;;;;;;;27.20;39.50;;;;;;4104701;28;19936;-40
2022/06/06 00:27:35;;;;;;;;;;;27.30;38.90;;;;;;4097671;28;20451;-40
2022/06/06 00:29:36;;;;;;;;;;;27.30;39.00;;;;;;4100209;28;20039;-39
2022/06/06 00:36:17;;;;;;;;;;;27.50;38.70;;;;;;4095585;28;20270;-41
2022/06/06 00:38:19;;;;;;;;;;;27.50;38.90;;;;;;4104598;28;20312;-38
2022/06/06 00:40:21;;;;;;;;;;;27.20;38.80;;;;;;4096861;28;19972;-37
2022/06/06 00:42:31;;;;;;;;;;;26.80;39.00;;;;;;4098165;28;19932;-44
2022/06/06 00:44:33;;;;;;;;;;;26.40;39.40;;;;;;4096699;28;20036;-43
2022/06/06 00:46:40;;;;;;;;;;;26.00;39.90;;;;;;4106598;28;19925;-39
2022/06/06 00:48:42;;;;;;;;;;;25.60;40.10;;;;;;4104760;28;20923;-44
2022/06/06 00:50:47;;;;;;;;;;;25.30;40.30;;;;;;4098196;28;19929;-38
2022/06/06 00:52:51;;;;;;;;;;;25.10;41.00;;;;;;4097159;28;19925;-37
2022/06/06 00:54:56;;;;;;;;;;;24.90;40.90;;;;;;4106875;28;20401;-39
2022/06/06 00:57:02;;;;;;;;;;;24.80;41.20;;;;;;4103449;28;20258;-38
2022/06/06 00:59:05;;;;;;;;;;;24.60;41.50;;;;;;4101604;28;20154;-39
2022/06/06 01:01:07;;;;;;;;;;;24.40;41.80;;;;;;4098602;28;20299;-42
2022/06/06 01:03:11;;;;;;;;;;;24.30;42.30;;;;;;4102741;28;19999;-40
2022/06/06 01:05:13;;;;;;;;;;;24.20;42.40;;;;;;4103461;28;21239;-42
2022/06/06 01:07:15;;;;;;;;;;;24.00;42.30;;;;;;4096953;28;19972;-39
2022/06/06 01:09:18;;;;;;;;;;;23.90;42.50;;;;;;4100687;28;19925;-44
2022/06/06 01:11:19;;;;;;;;;;;23.70;42.70;;;;;;4105997;28;19925;-38
2022/06/06 01:13:25;;;;;;;;;;;23.60;43.00;;;;;;4095506;28;19936;-40
2022/06/06 01:15:29;;;;;;;;;;;23.40;43.00;;;;;;4099828;28;20234;-38
2022/06/06 01:17:37;;;;;;;;;;;23.30;43.40;;;;;;4101531;28;19931;-38
2022/06/06 01:19:39;;;;;;;;;;;23.20;43.40;;;;;;4104003;28;19929;-41
2022/06/06 01:21:55;;;;;;;;;;;23.10;43.50;;;;;;4099293;28;20340;-40
2022/06/06 01:24:09;;;;;;;;;;;23.00;43.50;;;;;;4103383;28;20310;-38
2022/06/06 01:26:11;;;;;;;;;;;22.90;43.70;;;;;;4106734;28;20037;-42
2022/06/06 01:28:28;;;;;;;;;;;22.80;43.80;;;;;;4094922;28;20055;-39
2022/06/06 01:30:32;;;;;;;;;;;22.70;44.00;;;;;;4097551;28;20742;-38
2022/06/06 01:32:50;;;;;;;;;;;22.60;44.20;;;;;;4096811;28;20016;-39
2022/06/06 01:34:53;;;;;;;;;;;22.40;44.30;;;;;;4093632;28;20035;-45
2022/06/06 01:36:56;;;;;;;;;;;22.30;44.30;;;;;;4097532;28;19964;-42
2022/06/06 01:38:59;;;;;;;;;;;22.20;44.80;;;;;;4102385;28;20399;-39
2022/06/06 01:41:07;;;;;;;;;;;22.20;45.10;;;;;;4103676;28;20009;-40
2022/06/06 01:43:19;;;;;;;;;;;22.10;45.00;;;;;;4105759;28;21369;-38
2022/06/06 01:45:43;;;;;;;;;;;22.00;45.10;;;;;;4097838;28;19929;-38
2022/06/06 01:47:50;;;;;;;;;;;22.00;45.20;;;;;;4109642;28;20460;-38
2022/06/06 01:49:52;;;;;;;;;;;21.90;45.60;;;;;;4111442;28;19929;-42
2022/06/06 01:52:02;;;;;;;;;;;21.90;45.60;;;;;;4101922;28;19929;-39
2022/06/06 01:54:04;;;;;;;;;;;21.80;45.60;;;;;;4100770;28;20410;-39
2022/06/06 01:56:07;;;;;;;;;;;21.70;45.60;;;;;;4101998;28;20105;-41
2022/06/06 01:58:28;;;;;;;;;;;21.60;45.70;;;;;;4107154;28;19929;-37
2022/06/06 02:00:31;;;;;;;;;;;21.60;45.60;;;;;;4098845;28;19943;-38
2022/06/06 02:02:33;;;;;;;;;;;21.50;45.90;;;;;;4108044;28;20526;-43
2022/06/06 02:04:34;;;;;;;;;;;21.50;46.00;;;;;;4098903;28;20445;-38
2022/06/06 02:06:38;;;;;;;;;;;21.40;45.90;;;;;;4097498;28;19929;-38
2022/06/06 02:08:40;;;;;;;;;;;21.40;46.00;;;;;;4108483;28;20318;-41
2022/06/06 02:10:42;;;;;;;;;;;21.30;46.10;;;;;;4101749;28;20621;-39
2022/06/06 02:12:43;;;;;;;;;;;21.30;46.20;;;;;;4100452;28;19933;-38
2022/06/06 02:14:47;;;;;;;;;;;21.20;46.10;;;;;;4106122;28;19932;-37
2022/06/06 02:16:51;;;;;;;;;;;21.10;46.20;;;;;;4103278;28;20007;-40
2022/06/06 02:18:53;;;;;;;;;;;21.10;46.30;;;;;;4099602;28;19925;-39
2022/06/06 02:20:55;;;;;;;;;;;21.00;46.30;;;;;;4100278;28;20839;-37
2022/06/06 02:22:57;;;;;;;;;;;21.00;46.50;;;;;;4106372;28;20027;-39
2022/06/06 02:24:58;;;;;;;;;;;20.90;46.30;;;;;;4100371;28;19933;-39
2022/06/06 02:27:00;;;;;;;;;;;20.80;46.30;;;;;;4100154;28;19951;-37
2022/06/06 02:29:02;;;;;;;;;;;20.70;46.90;;;;;;4109520;28;20376;-37
2022/06/06 02:31:04;;;;;;;;;;;20.70;46.20;;;;;;4100933;28;20463;-38
2022/06/06 02:33:05;;;;;;;;;;;20.60;45.60;;;;;;4098215;28;19929;-37
2022/06/06 02:35:09;;;;;;;;;;;20.50;46.20;;;;;;4108641;28;20451;-37
2022/06/06 02:37:10;;;;;;;;;;;20.50;46.60;;;;;;4101503;28;19930;-39
2022/06/06 02:39:12;;;;;;;;;;;20.50;47.20;;;;;;4101771;28;19929;-40
2022/06/06 02:41:14;;;;;;;;;;;20.40;46.50;;;;;;4103238;28;19925;-37
2022/06/06 02:43:18;;;;;;;;;;;20.40;46.20;;;;;;4105494;28;20371;-38
2022/06/06 02:45:21;;;;;;;;;;;20.30;46.50;;;;;;4100553;28;19959;-36
2022/06/06 02:47:22;;;;;;;;;;;20.30;46.50;;;;;;4096441;28;21077;-38
2022/06/06 02:49:24;;;;;;;;;;;20.20;46.10;;;;;;4105322;28;19929;-40
2022/06/06 02:51:25;;;;;;;;;;;20.10;46.50;;;;;;4094364;28;19987;-37
2022/06/06 02:53:27;;;;;;;;;;;20.10;46.80;;;;;;4093960;28;19929;-40
2022/06/06 02:55:31;;;;;;;;;;;20.10;47.00;;;;;;4108282;28;20379;-38
2022/06/06 02:57:36;;;;;;;;;;;20.10;47.30;;;;;;4104018;28;21054;-37
2022/06/06 02:59:38;;;;;;;;;;;20.10;47.30;;;;;;4099985;28;20329;-39
2022/06/06 03:01:40;;;;;;;;;;;20.00;47.40;;;;;;4099227;28;19935;-37
2022/06/06 03:03:41;;;;;;;;;;;20.00;47.50;;;;;;4105008;28;19987;-42
2022/06/06 03:05:46;;;;;;;;;;;20.00;47.90;;;;;;4106793;28;20683;-39
2022/06/06 03:08:11;;;;;;;;;;;20.00;48.10;;;;;;4093741;28;20672;-39
2022/06/06 03:10:12;;;;;;;;;;;20.00;48.10;;;;;;4099052;28;21095;-37
2022/06/06 03:12:40;;;;;;;;;;;20.00;48.30;;;;;;4094214;28;19925;-37
2022/06/06 03:14:42;;;;;;;;;;;20.00;48.30;;;;;;4104295;28;21160;-36
2022/06/06 03:21:52;;;;;;;;;;;19.90;48.30;;;;;;4104161;28;19929;-37
2022/06/06 03:24:06;;;;;;;;;;;19.90;48.30;;;;;;4087132;28;20052;-37
2022/06/06 03:26:26;;;;;;;;;;;19.90;48.30;;;;;;4098358;28;21036;-38
2022/06/06 03:28:32;;;;;;;;;;;20.00;48.40;;;;;;4105725;28;20381;-38
2022/06/06 03:30:33;;;;;;;;;;;20.00;48.40;;;;;;4100949;28;19951;-37
2022/06/06 03:32:38;;;;;;;;;;;20.00;48.50;;;;;;4093553;28;20145;-37
2022/06/06 03:34:42;;;;;;;;;;;20.00;48.60;;;;;;4099582;28;20268;-39
2022/06/06 03:36:44;;;;;;;;;;;20.00;48.70;;;;;;4105356;28;19936;-42
2022/06/06 03:39:16;;;;;;;;;;;20.50;48.30;;;;;;4097646;28;21677;-43
2022/06/06 03:41:47;;;;;;;;;;;21.00;47.30;;;;;;4076681;28;19937;-38
2022/06/06 03:44:00;;;;;;;;;;;21.70;46.20;;;;;;4090752;28;21110;-41
2022/06/06 03:46:10;;;;;;;;;;;22.40;45.10;;;;;;4103095;28;20054;-38
2022/06/06 03:48:17;;;;;;;;;;;22.90;44.30;;;;;;4102075;28;21366;-38
2022/06/06 03:50:19;;;;;;;;;;;23.40;43.70;;;;;;4097668;28;20448;-38
2022/06/06 03:52:24;;;;;;;;;;;23.80;43.10;;;;;;4095835;28;19936;-38
2022/06/06 03:54:45;;;;;;;;;;;24.20;42.50;;;;;;4101716;28;20570;-38
2022/06/06 03:56:46;;;;;;;;;;;24.60;42.10;;;;;;4093771;28;19987;-38
2022/06/06 03:58:49;;;;;;;;;;;24.90;41.60;;;;;;4103144;28;20301;-41
2022/06/06 04:00:51;;;;;;;;;;;25.30;41.20;;;;;;4098251;28;20951;-38
2022/06/06 04:02:55;;;;;;;;;;;25.50;41.50;;;;;;4096909;28;20005;-38
2022/06/06 04:04:59;;;;;;;;;;;25.60;40.60;;;;;;4103171;28;20647;-42
2022/06/06 04:07:02;;;;;;;;;;;25.40;40.60;;;;;;4104367;28;19934;-38
2022/06/06 04:09:04;;;;;;;;;;;25.10;40.90;;;;;;4095266;28;21678;-38
2022/06/06 04:11:09;;;;;;;;;;;24.80;41.50;;;;;;4096644;28;20495;-38
2022/06/06 04:13:29;;;;;;;;;;;24.60;42.00;;;;;;4102040;28;19937;-38
2022/06/06 04:15:45;;;;;;;;;;;24.30;42.40;;;;;;4098653;28;20293;-37
2022/06/06 04:17:50;;;;;;;;;;;24.10;42.80;;;;;;4099504;28;20404;-39
2022/06/06 04:19:51;;;;;;;;;;;23.90;43.30;;;;;;4099740;28;19925;-38
2022/06/06 04:21:53;;;;;;;;;;;23.80;43.50;;;;;;4105257;28;20012;-38
2022/06/06 04:24:03;;;;;;;;;;;23.70;43.70;;;;;;4097028;28;19975;-38
2022/06/06 04:26:23;;;;;;;;;;;23.60;44.00;;;;;;4098471;28;20306;-38
2022/06/06 04:28:27;;;;;;;;;;;23.50;44.20;;;;;;4100024;28;19979;-38
2022/06/06 04:30:39;;;;;;;;;;;23.40;44.30;;;;;;4096011;28;19924;-38
2022/06/06 04:32:41;;;;;;;;;;;23.40;44.40;;;;;;4093822;28;19936;-38
2022/06/06 04:35:06;;;;;;;;;;;23.30;44.60;;;;;;4093777;28;20334;-41
2022/06/06 04:37:34;;;;;;;;;;;23.30;44.70;;;;;;4084289;28;19937;-39
2022/06/06 04:39:46;;;;;;;;;;;23.20;44.70;;;;;;4097048;28;20043;-38
2022/06/06 04:42:04;;;;;;;;;;;23.20;44.90;;;;;;4104099;28;19929;-39
2022/06/06 04:44:06;;;;;;;;;;;23.20;44.90;;;;;;4094363;28;20069;-39
2022/06/06 04:46:14;;;;;;;;;;;23.10;44.90;;;;;;4101965;28;20032;-38
2022/06/06 04:48:16;;;;;;;;;;;23.10;45.00;;;;;;4102527;28;20411;-38
2022/06/06 04:50:20;;;;;;;;;;;23.10;45.10;;;;;;4078774;28;19968;-39
2022/06/06 04:52:22;;;;;;;;;;;23.10;45.10;;;;;;4092308;28;19925;-40
2022/06/06 04:54:24;;;;;;;;;;;23.10;45.00;;;;;;4106800;28;20020;-38
2022/06/06 04:56:26;;;;;;;;;;;23.00;44.70;;;;;;4094404;28;20505;-39
2022/06/06 04:58:29;;;;;;;;;;;23.00;44.70;;;;;;4095394;28;19925;-38
2022/06/06 05:00:33;;;;;;;;;;;22.90;44.70;;;;;;4101909;28;19952;-38
2022/06/06 05:02:35;;;;;;;;;;;22.90;44.70;;;;;;4103171;28;19933;-40
2022/06/06 05:04:37;;;;;;;;;;;22.90;44.60;;;;;;4096451;28;19937;-40
2022/06/06 05:06:47;;;;;;;;;;;22.80;44.60;;;;;;4096940;28;19931;-38
2022/06/06 05:08:55;;;;;;;;;;;22.70;44.70;;;;;;4096654;28;20352;-38
2022/06/06 05:11:00;;;;;;;;;;;22.70;44.60;;;;;;4103539;28;20150;-37
2022/06/06 05:13:11;;;;;;;;;;;22.60;44.50;;;;;;4103943;28;20124;-38
2022/06/06 05:15:19;;;;;;;;;;;22.60;44.50;;;;;;4099819;28;20031;-38
2022/06/06 05:17:30;;;;;;;;;;;22.50;45.10;;;;;;4097386;28;20624;-38
2022/06/06 05:19:39;;;;;;;;;;;22.50;44.50;;;;;;4094342;28;19980;-39
2022/06/06 05:21:50;;;;;;;;;;;22.40;44.50;;;;;;4097457;28;19930;-38
2022/06/06 05:24:01;;;;;;;;;;;22.40;44.50;;;;;;4100768;28;19933;-37
2022/06/06 05:26:09;;;;;;;;;;;22.30;44.50;;;;;;4100073;28;19965;-37
2022/06/06 05:28:26;;;;;;;;;;;22.20;44.60;;;;;;4099094;28;20180;-37
2022/06/06 05:30:33;;;;;;;;;;;22.20;44.60;;;;;;4099979;28;20384;-37
2022/06/06 05:32:39;;;;;;;;;;;22.10;44.80;;;;;;4099804;28;19929;-37
2022/06/06 05:34:46;;;;;;;;;;;22.00;44.80;;;;;;4102894;28;19960;-37
2022/06/06 05:36:56;;;;;;;;;;;22.00;44.90;;;;;;4106746;28;19939;-37
2022/06/06 05:39:16;;;;;;;;;;;21.90;44.80;;;;;;4106390;28;21104;-41
2022/06/06 05:41:27;;;;;;;;;;;21.90;44.70;;;;;;4083056;28;20201;-38
2022/06/06 05:43:47;;;;;;;;;;;21.80;45.10;;;;;;4107395;28;19981;-39
2022/06/06 05:46:04;;;;;;;;;;;21.70;45.30;;;;;;4104330;28;19936;-38
2022/06/06 05:48:09;;;;;;;;;;;21.70;45.50;;;;;;4105404;28;19983;-39
2022/06/06 05:50:15;;;;;;;;;;;21.60;45.70;;;;;;4108358;28;19925;-38
2022/06/06 05:52:23;;;;;;;;;;;21.60;45.80;;;;;;4107345;28;19929;-38
2022/06/06 05:54:35;;;;;;;;;;;21.60;46.20;;;;;;4109630;28;19933;-37
2022/06/06 05:56:42;;;;;;;;;;;21.50;45.90;;;;;;4110127;28;20071;-38
2022/06/06 05:58:50;;;;;;;;;;;21.50;46.00;;;;;;4107606;28;19933;-41
2022/06/06 06:00:51;;;;;;;;;;;21.50;46.10;;;;;;4100952;28;21126;-37
2022/06/06 06:02:59;;;;;;;;;;;21.50;46.20;;;;;;4100349;28;19937;-37
2022/06/06 06:05:04;;;;;;;;;;;21.50;46.30;;;;;;4099242;28;19936;-40
2022/06/06 06:07:24;;;;;;;;;;;21.40;46.40;;;;;;4109985;28;20667;-38
2022/06/06 06:09:44;;;;;;;;;;;21.40;46.40;;;;;;4100078;28;19929;-38
2022/06/06 06:12:00;;;;;;;;;;;21.40;46.40;;;;;;4099108;28;20597;-37
2022/06/06 06:14:11;;;;;;;;;;;21.40;46.40;;;;;;4096978;28;20036;-39
2022/06/06 06:16:15;;;;;;;;;;;21.30;46.50;;;;;;4100319;28;20432;-38
2022/06/06 06:18:23;;;;;;;;;;;21.30;46.40;;;;;;4096320;28;19991;-37
2022/06/06 06:20:31;;;;;;;;;;;21.30;46.40;;;;;;4096351;28;20502;-38
2022/06/06 06:22:53;;;;;;;;;;;21.30;46.50;;;;;;4102720;28;20237;-37
2022/06/06 06:24:56;;;;;;;;;;;21.30;46.50;;;;;;4099413;28;19926;-38
2022/06/06 06:26:58;;;;;;;;;;;21.30;46.40;;;;;;4106741;28;19939;-43
2022/06/06 06:29:02;;;;;;;;;;;21.30;46.20;;;;;;4107206;28;21667;-38
2022/06/06 06:31:05;;;;;;;;;;;21.50;46.20;;;;;;4100113;28;19929;-38
2022/06/06 06:33:11;;;;;;;;;;;21.70;45.80;;;;;;4099807;28;19936;-38
2022/06/06 06:35:18;;;;;;;;;;;21.90;45.20;;;;;;4107609;28;19926;-39
2022/06/06 06:37:23;;;;;;;;;;;21.90;45.10;;;;;;4107356;28;19929;-37
2022/06/06 06:39:33;;;;;;;;;;;21.80;45.20;;;;;;4104419;28;21525;-39
2022/06/06 06:41:35;;;;;;;;;;;21.60;45.40;;;;;;4102094;28;19983;-38
2022/06/06 06:43:45;;;;;;;;;;;21.50;45.40;;;;;;4100609;28;20623;-39
2022/06/06 06:45:51;;;;;;;;;;;21.30;45.50;;;;;;4099672;28;19972;-38
2022/06/06 06:47:57;;;;;;;;;;;21.20;45.80;;;;;;4101230;28;20434;-37
2022/06/06 06:49:59;;;;;;;;;;;21.10;46.10;;;;;;4109256;28;20480;-39
2022/06/06 06:52:03;;;;;;;;;;;21.10;46.50;;;;;;4101581;28;19979;-43
2022/06/06 06:54:08;;;;;;;;;;;21.00;46.70;;;;;;4100160;28;19925;-40
2022/06/06 06:56:09;;;;;;;;;;;20.90;47.00;;;;;;4107067;28;19925;-37
2022/06/06 06:58:17;;;;;;;;;;;20.90;47.20;;;;;;4104511;28;21003;-37
2022/06/06 07:00:20;;;;;;;;;;;20.80;47.30;;;;;;4093572;28;20490;-38
2022/06/06 07:09:47;;;;;;;;;;;20.70;48.10;;;;;;4104074;28;20343;-37
2022/06/06 07:11:58;;;;;;;;;;;20.60;48.20;;;;;;4101353;28;20017;-39
2022/06/06 07:14:18;;;;;;;;;;;20.60;48.00;;;;;;4096222;28;19925;-38
2022/06/06 07:16:24;;;;;;;;;;;20.60;48.20;;;;;;4099776;28;20389;-40
2022/06/06 07:18:29;;;;;;;;;;;20.50;48.20;;;;;;4098432;28;20426;-39
2022/06/06 07:20:31;;;;;;;;;;;20.60;48.40;;;;;;4098391;28;19937;-38
2022/06/06 07:24:59;;;;;;;;;;;20.50;48.60;;;;;;4098038;28;21559;-38
2022/06/06 07:27:01;;;;;;;;;;;20.50;48.70;;;;;;4105426;28;19925;-38
2022/06/06 07:29:05;;;;;;;;;;;20.40;48.60;;;;;;4102967;28;20424;-39
2022/06/06 07:31:20;;;;;;;;;;;20.40;48.60;;;;;;4095657;28;19943;-42
2022/06/06 07:33:28;;;;;;;;;;;20.40;48.70;;;;;;4090868;28;20571;-38
2022/06/06 07:35:38;;;;;;;;;;;20.40;48.80;;;;;;4095137;28;19963;-38
2022/06/06 07:37:48;;;;;;;;;;;20.30;48.70;;;;;;4096535;28;19929;-38
2022/06/06 07:40:05;;;;;;;;;;;20.30;48.80;;;;;;4096819;28;20541;-36
2022/06/06 07:42:24;;;;;;;;;;;20.30;48.80;;;;;;4094527;28;19926;-40
2022/06/06 07:44:29;;;;;;;;;;;20.30;48.60;;;;;;4080726;28;19995;-38
2022/06/06 07:46:33;;;;;;;;;;;20.30;48.40;;;;;;4098407;28;20340;-37
2022/06/06 07:48:44;;;;;;;;;;;20.20;48.40;;;;;;4095308;28;19974;-39
2022/06/06 07:50:52;;;;;;;;;;;20.20;48.30;;;;;;4094863;28;19925;-37
2022/06/06 07:52:58;;;;;;;;;;;20.20;48.20;;;;;;4099819;28;20632;-37
2022/06/06 07:55:20;;;;;;;;;;;20.10;48.00;;;;;;4105447;28;19998;-38
2022/06/06 07:57:28;;;;;;;;;;;20.10;48.20;;;;;;4099249;28;20091;-37
2022/06/06 07:59:47;;;;;;;;;;;20.10;48.40;;;;;;4106621;28;19948;-38
2022/06/06 08:02:03;;;;;;;;;;;20.10;48.50;;;;;;4093205;28;20648;-38
2022/06/06 08:04:19;;;;;;;;;;;20.00;48.60;;;;;;4094379;28;20353;-39
2022/06/06 08:06:24;;;;;;;;;;;20.00;49.20;;;;;;4094810;28;20409;-40
2022/06/06 08:08:40;;;;;;;;;;;20.00;48.70;;;;;;4097900;28;19979;-38
2022/06/06 08:10:41;;;;;;;;;;;20.00;49.10;;;;;;4097609;28;20364;-39
2022/06/06 08:12:43;;;;;;;;;;;19.90;49.20;;;;;;4103339;28;19931;-38
2022/06/06 08:14:50;;;;;;;;;;;19.90;49.30;;;;;;4097756;28;21002;-37
2022/06/06 08:17:15;;;;;;;;;;;19.90;49.40;;;;;;4095308;28;20002;-38
2022/06/06 08:19:35;;;;;;;;;;;19.90;49.50;;;;;;4096210;28;20994;-39
2022/06/06 08:21:43;;;;;;;;;;;19.90;49.80;;;;;;4098511;28;19936;-42
2022/06/06 08:23:45;;;;;;;;;;;19.90;50.00;;;;;;4099252;28;20302;-41
2022/06/06 08:25:47;;;;;;;;;;;19.90;50.00;;;;;;4098223;28;20507;-42
2022/06/06 08:27:51;;;;;;;;;;;19.90;49.80;;;;;;4087509;28;19929;-38
2022/06/06 08:29:52;;;;;;;;;;;19.90;50.10;;;;;;4091069;28;20039;-38
2022/06/06 08:31:54;;;;;;;;;;;19.90;50.30;;;;;;4099926;28;20267;-36
2022/06/06 08:33:55;;;;;;;;;;;19.90;50.30;;;;;;4090594;28;19929;-36
2022/06/06 08:36:11;;;;;;;;;;;19.90;50.20;;;;;;4093694;28;19933;-37
2022/06/06 08:38:27;;;;;;;;;;;19.90;50.10;;;;;;4094512;28;20538;-37
2022/06/06 08:40:40;;;;;;;;;;;19.80;50.10;;;;;;4092463;28;19935;-38
2022/06/06 08:42:43;;;;;;;;;;;19.80;50.00;;;;;;4095872;28;19925;-40
2022/06/06 08:45:09;;;;;;;;;;;19.80;50.10;;;;;;4091898;28;19936;-37
2022/06/06 08:47:19;;;;;;;;;;;19.80;50.10;;;;;;4093486;28;19929;-36
2022/06/06 08:51:50;;;;;;;;;;;19.80;50.10;;;;;;4100982;28;20704;-39
2022/06/06 08:53:58;;;;;;;;;;;19.80;50.10;;;;;;4099263;28;21777;-36
2022/06/06 08:56:02;;;;;;;;;;;19.80;50.10;;;;;;4094394;28;20277;-45
2022/06/06 08:58:10;;;;;;;;;;;19.80;50.10;;;;;;4095615;28;19972;-47
2022/06/06 09:00:30;;;;;;;;;;;19.70;50.00;;;;;;4093163;28;19976;-46
2022/06/06 09:02:34;;;;;;;;;;;19.70;49.80;;;;;;4093722;28;19944;-48
2022/06/06 09:04:54;;;;;;;;;;;19.70;49.80;;;;;;4090407;28;19926;-38
2022/06/06 09:07:07;;;;;;;;;;;19.70;49.80;;;;;;4091282;28;19929;-36
2022/06/06 09:09:28;;;;;;;;;;;19.60;49.80;;;;;;4091228;28;19926;-36
2022/06/06 09:11:41;;;;;;;;;;;19.60;49.90;;;;;;4097409;28;19929;-48
2022/06/06 09:14:14;;;;;;;;;;;19.60;49.90;;;;;;4094628;28;20357;-47
2022/06/06 09:16:18;;;;;;;;;;;19.60;50.00;;;;;;4085124;28;20165;-45
2022/06/06 09:18:23;;;;;;;;;;;19.50;50.00;;;;;;4086607;28;19929;-48
2022/06/06 09:20:40;;;;;;;;;;;19.50;50.10;;;;;;4094366;28;20443;-48
2022/06/06 09:22:42;;;;;;;;;;;19.50;50.30;;;;;;4088548;28;20026;-48
2022/06/06 09:24:46;;;;;;;;;;;19.50;50.30;;;;;;4093387;28;19940;-48
2022/06/06 09:27:11;;;;;;;;;;;19.50;50.30;;;;;;4089447;28;20078;-47
2022/06/06 09:29:31;;;;;;;;;;;19.50;50.40;;;;;;4095331;28;19929;-48
2022/06/06 09:31:51;;;;;;;;;;;19.40;50.50;;;;;;4086699;28;20402;-47
2022/06/06 09:34:11;;;;;;;;;;;19.40;50.50;;;;;;4090322;28;19929;-48
2022/06/06 09:36:13;;;;;;;;;;;19.40;50.50;;;;;;4095001;28;20003;-48
2022/06/06 09:38:15;;;;;;;;;;;19.40;50.40;;;;;;4086460;28;19936;-47
2022/06/06 09:40:29;;;;;;;;;;;19.40;50.40;;;;;;4094071;28;19925;-48
2022/06/06 09:42:40;;;;;;;;;;;19.30;50.50;;;;;;4092637;28;19929;-48
2022/06/06 09:44:48;;;;;;;;;;;19.30;50.50;;;;;;4096096;28;20508;-47
2022/06/06 09:47:27;;;;;;;;;;;19.30;50.70;;;;;;4097756;28;20332;-47
2022/06/06 09:49:47;;;;;;;;;;;19.30;50.90;;;;;;4083186;28;19956;-47
2022/06/06 09:52:03;;;;;;;;;;;19.30;51.00;;;;;;4067938;28;19932;-46
2022/06/06 09:59:11;;;;;;;;;;;19.20;50.80;;;;;;4088652;28;20429;-46
2022/06/06 10:01:13;;;;;;;;;;;19.20;50.70;;;;;;4096053;28;19982;-47
2022/06/06 10:03:27;;;;;;;;;;;19.20;50.90;;;;;;4100533;28;20429;-46
2022/06/06 10:05:28;;;;;;;;;;;19.20;51.00;;;;;;4101652;28;19966;-47
2022/06/06 10:07:51;;;;;;;;;;;19.20;51.20;;;;;;4094409;28;20071;-36
2022/06/06 10:10:05;;;;;;;;;;;19.10;51.20;;;;;;4104836;28;20576;-46
2022/06/06 10:12:10;;;;;;;;;;;19.10;51.10;;;;;;4103003;28;20438;-46
2022/06/06 10:14:11;;;;;;;;;;;19.10;51.10;;;;;;4098084;28;19929;-47
2022/06/06 10:16:33;;;;;;;;;;;19.10;51.10;;;;;;4092388;28;20301;-46
2022/06/06 10:18:57;;;;;;;;;;;19.10;51.10;;;;;;4096810;28;21720;-46
2022/06/06 10:21:21;;;;;;;;;;;19.10;51.20;;;;;;4105068;28;20033;-47
2022/06/06 10:23:50;;;;;;;;;;;19.10;51.20;;;;;;4098121;28;19961;-47
2022/06/06 10:26:07;;;;;;;;;;;19.00;51.20;;;;;;4103898;28;19933;-46
2022/06/06 10:28:24;;;;;;;;;;;19.00;51.30;;;;;;4103224;28;20438;-47
2022/06/06 10:30:31;;;;;;;;;;;19.00;51.30;;;;;;4099573;28;20375;-46
2022/06/06 10:32:51;;;;;;;;;;;19.00;51.30;;;;;;4102520;28;19929;-47
2022/06/06 10:35:02;;;;;;;;;;;19.00;51.40;;;;;;4097253;28;19963;-46
2022/06/06 10:37:14;;;;;;;;;;;18.90;51.50;;;;;;4094714;28;21026;-47
2022/06/06 10:39:42;;;;;;;;;;;18.90;51.50;;;;;;4093961;28;20483;-47
2022/06/06 10:41:46;;;;;;;;;;;18.90;51.60;;;;;;4096028;28;19929;-45
2022/06/06 10:44:06;;;;;;;;;;;18.90;51.60;;;;;;4094149;28;20661;-46
2022/06/06 10:46:10;;;;;;;;;;;18.90;51.60;;;;;;4095355;28;20011;-46
2022/06/06 10:48:18;;;;;;;;;;;18.80;51.50;;;;;;4094752;28;20321;-47
2022/06/06 10:50:19;;;;;;;;;;;18.80;51.60;;;;;;4097203;28;19924;-46
2022/06/06 10:52:27;;;;;;;;;;;18.80;51.70;;;;;;4102368;28;19936;-46
2022/06/06 10:54:37;;;;;;;;;;;18.80;51.70;;;;;;4105661;28;19929;-46
2022/06/06 10:56:39;;;;;;;;;;;18.80;51.70;;;;;;4099286;28;20920;-45
2022/06/06 10:58:44;;;;;;;;;;;18.80;51.80;;;;;;4095903;28;20258;-46
2022/06/06 11:00:58;;;;;;;;;;;18.70;51.60;;;;;;4095617;28;20364;-46
2022/06/06 11:03:18;;;;;;;;;;;18.80;51.80;;;;;;4093786;28;19924;-48
2022/06/06 11:05:38;;;;;;;;;;;18.70;51.90;;;;;;4095147;28;19933;-48
2022/06/06 11:07:44;;;;;;;;;;;18.70;51.90;;;;;;4103100;28;20609;-45
2022/06/06 11:10:04;;;;;;;;;;;18.70;51.90;;;;;;4093677;28;20141;-46
2022/06/06 11:12:19;;;;;;;;;;;18.70;51.90;;;;;;4104157;28;21704;-49
2022/06/06 11:14:40;;;;;;;;;;;18.70;51.90;;;;;;4108204;28;19936;-45
2022/06/06 11:16:59;;;;;;;;;;;18.60;51.80;;;;;;4099709;28;20408;-46
2022/06/06 11:19:10;;;;;;;;;;;18.60;52.00;;;;;;4099543;28;20017;-49
2022/06/06 11:21:14;;;;;;;;;;;18.60;51.80;;;;;;4099942;28;19936;-49
2022/06/06 11:23:16;;;;;;;;;;;18.60;51.90;;;;;;4100958;28;19929;-37
2022/06/06 11:25:19;;;;;;;;;;;18.60;51.90;;;;;;4103241;28;20586;-40
2022/06/06 11:27:26;;;;;;;;;;;18.60;52.10;;;;;;4098000;28;20220;-40
2022/06/06 11:29:40;;;;;;;;;;;18.60;52.20;;;;;;4098174;28;20307;-38
2022/06/06 11:32:02;;;;;;;;;;;18.60;52.20;;;;;;4098777;28;19947;-38
2022/06/06 11:34:22;;;;;;;;;;;18.50;52.10;;;;;;4097754;28;19929;-39
2022/06/06 11:36:34;;;;;;;;;;;18.50;52.10;;;;;;4106093;28;20657;-39
2022/06/06 11:39:07;;;;;;;;;;;18.50;52.10;;;;;;4104584;28;19972;-38
2022/06/06 11:41:29;;;;;;;;;;;18.50;52.20;;;;;;4087098;28;19988;-45
2022/06/06 11:43:49;;;;;;;;;;;18.50;52.30;;;;;;4092390;28;20405;-38
2022/06/06 11:46:08;;;;;;;;;;;18.50;52.30;;;;;;4103823;28;19925;-38
2022/06/06 11:48:10;;;;;;;;;;;18.40;52.30;;;;;;4098646;28;19929;-38
2022/06/06 11:50:29;;;;;;;;;;;18.50;52.30;;;;;;4104187;28;20431;-40
2022/06/06 11:52:50;;;;;;;;;;;18.40;52.20;;;;;;4099446;28;20590;-39
2022/06/06 11:55:10;;;;;;;;;;;18.40;52.20;;;;;;4097166;28;19948;-42
2022/06/06 11:57:12;;;;;;;;;;;18.40;52.20;;;;;;4101805;28;20747;-39
2022/06/06 11:59:22;;;;;;;;;;;18.40;52.40;;;;;;4094699;28;20639;-38
2022/06/06 12:01:36;;;;;;;;;;;18.40;52.30;;;;;;4098412;28;20300;-38
2022/06/06 12:03:41;;;;;;;;;;;18.40;52.30;;;;;;4097059;28;20078;-42
2022/06/06 12:06:03;;;;;;;;;;;18.30;52.30;;;;;;4095679;28;19932;-39
2022/06/06 12:08:25;;;;;;;;;;;18.30;52.30;;;;;;4087352;28;20404;-38
2022/06/06 12:10:31;;;;;;;;;;;18.30;52.30;;;;;;4046361;28;21760;-39
2022/06/06 12:12:40;;;;;;;;;;;18.30;52.50;;;;;;4086555;28;19926;-39
2022/06/06 12:15:00;;;;;;;;;;;18.30;52.50;;;;;;4087132;28;20342;-37
2022/06/06 12:17:01;;;;;;;;;;;18.30;52.50;;;;;;4091322;28;20855;-40
2022/06/06 12:19:06;;;;;;;;;;;18.30;52.50;;;;;;4087094;28;20327;-38
2022/06/06 12:21:16;;;;;;;;;;;18.30;52.50;;;;;;4090816;28;20660;-37
2022/06/06 12:23:17;;;;;;;;;;;18.20;52.30;;;;;;4091146;28;20600;-37
2022/06/06 12:25:31;;;;;;;;;;;18.20;52.60;;;;;;4092768;28;20401;-37
2022/06/06 12:27:50;;;;;;;;;;;18.20;52.80;;;;;;4091598;28;20133;-36
2022/06/06 12:29:52;;;;;;;;;;;18.20;52.80;;;;;;4093628;28;19929;-38
2022/06/06 12:32:12;;;;;;;;;;;18.10;52.80;;;;;;4069638;28;20025;-41
2022/06/06 12:34:21;;;;;;;;;;;18.20;52.90;;;;;;4076188;28;20328;-37
2022/06/06 12:36:32;;;;;;;;;;;18.10;52.70;;;;;;4094959;28;19929;-38
2022/06/06 12:38:48;;;;;;;;;;;18.10;52.70;;;;;;4095302;28;20431;-42
2022/06/06 12:41:01;;;;;;;;;;;18.10;52.80;;;;;;4090441;28;19973;-40
2022/06/06 12:43:03;;;;;;;;;;;18.10;52.90;;;;;;4096003;28;20039;-40
2022/06/06 12:45:05;;;;;;;;;;;18.10;52.90;;;;;;4088593;28;19929;-38
2022/06/06 12:47:21;;;;;;;;;;;18.00;52.90;;;;;;4087368;28;19929;-40
2022/06/06 12:49:28;;;;;;;;;;;18.00;52.90;;;;;;4085933;28;20358;-40
2022/06/06 12:51:45;;;;;;;;;;;18.00;52.80;;;;;;4083676;28;20189;-41
2022/06/06 12:54:05;;;;;;;;;;;18.00;52.90;;;;;;4087847;28;19930;-38
2022/06/06 12:56:23;;;;;;;;;;;18.00;52.90;;;;;;4086187;28;21672;-39